sensor_id;sensor_type;location;lat;lon;timestamp;P1;durP1;ratioP1;P2;durP2;ratioP2
34828;SDS011;21042;47.620;12.188;2023-07-31T00:02:19;6.88;;;2.83;;
34828;SDS011;21042;47.620;12.188;2023-07-31T00:04:46;6.72;;;2.50;;
34828;SDS011;21042;47.620;12.188;2023-07-31T00:07:13;7.70;;;3.22;;
34828;SDS011;21042;47.620;12.188;2023-07-31T00:12:07;4.30;;;2.42;;
34828;SDS011;21042;47.620;12.188;2023-07-31T00:17:00;7.30;;;2.42;;
34828;SDS011;21042;47.620;12.188;2023-07-31T00:19:27;5.13;;;2.88;;
34828;SDS011;21042;47.620;12.188;2023-07-31T00:21:54;4.45;;;2.50;;
34828;SDS011;21042;47.620;12.188;2023-07-31T00:24:21;14.65;;;3.40;;
34828;SDS011;21042;47.620;12.188;2023-07-31T00:26:47;9.70;;;2.83;;
34828;SDS011;21042;47.620;12.188;2023-07-31T00:29:14;5.93;;;2.63;;
34828;SDS011;21042;47.620;12.188;2023-07-31T00:31:41;6.75;;;2.80;;
34828;SDS011;21042;47.620;12.188;2023-07-31T00:34:08;9.55;;;2.70;;
34828;SDS011;21042;47.620;12.188;2023-07-31T00:36:34;6.30;;;2.53;;
34828;SDS011;21042;47.620;12.188;2023-07-31T00:39:02;4.22;;;2.90;;
34828;SDS011;21042;47.620;12.188;2023-07-31T00:41:28;10.20;;;3.17;;
34828;SDS011;21042;47.620;12.188;2023-07-31T00:43:55;6.97;;;3.05;;
34828;SDS011;21042;47.620;12.188;2023-07-31T00:46:22;3.92;;;2.67;;
34828;SDS011;21042;47.620;12.188;2023-07-31T00:48:49;5.97;;;2.88;;
34828;SDS011;21042;47.620;12.188;2023-07-31T00:51:17;6.72;;;3.30;;
34828;SDS011;21042;47.620;12.188;2023-07-31T00:53:43;11.20;;;2.40;;
34828;SDS011;21042;47.620;12.188;2023-07-31T00:56:13;6.63;;;2.80;;
34828;SDS011;21042;47.620;12.188;2023-07-31T00:58:40;5.40;;;3.05;;
34828;SDS011;21042;47.620;12.188;2023-07-31T01:01:07;7.78;;;2.80;;
34828;SDS011;21042;47.620;12.188;2023-07-31T01:03:34;5.97;;;2.85;;
34828;SDS011;21042;47.620;12.188;2023-07-31T01:09:02;8.15;;;2.72;;
34828;SDS011;21042;47.620;12.188;2023-07-31T01:11:38;5.15;;;2.75;;
34828;SDS011;21042;47.620;12.188;2023-07-31T01:14:27;6.68;;;2.67;;
34828;SDS011;21042;47.620;12.188;2023-07-31T01:16:54;9.88;;;2.63;;
34828;SDS011;21042;47.620;12.188;2023-07-31T01:19:22;4.28;;;2.40;;
34828;SDS011;21042;47.620;12.188;2023-07-31T01:25:05;3.95;;;2.92;;
34828;SDS011;21042;47.620;12.188;2023-07-31T01:27:49;7.03;;;2.90;;
34828;SDS011;21042;47.620;12.188;2023-07-31T01:30:25;9.55;;;3.45;;
34828;SDS011;21042;47.620;12.188;2023-07-31T01:32:55;4.13;;;2.55;;
34828;SDS011;21042;47.620;12.188;2023-07-31T01:35:23;4.45;;;2.83;;
34828;SDS011;21042;47.620;12.188;2023-07-31T01:37:52;7.50;;;3.78;;
34828;SDS011;21042;47.620;12.188;2023-07-31T01:40:20;5.43;;;2.70;;
34828;SDS011;21042;47.620;12.188;2023-07-31T01:42:47;4.57;;;2.85;;
34828;SDS011;21042;47.620;12.188;2023-07-31T01:45:14;4.95;;;2.85;;
34828;SDS011;21042;47.620;12.188;2023-07-31T01:47:40;4.80;;;2.95;;
34828;SDS011;21042;47.620;12.188;2023-07-31T01:50:07;5.32;;;2.55;;
34828;SDS011;21042;47.620;12.188;2023-07-31T01:52:35;4.53;;;2.53;;
34828;SDS011;21042;47.620;12.188;2023-07-31T01:55:02;5.22;;;2.63;;
34828;SDS011;21042;47.620;12.188;2023-07-31T01:57:29;4.85;;;2.85;;
34828;SDS011;21042;47.620;12.188;2023-07-31T01:59:56;4.40;;;2.88;;
34828;SDS011;21042;47.620;12.188;2023-07-31T02:02:22;5.03;;;2.90;;
34828;SDS011;21042;47.620;12.188;2023-07-31T02:04:50;6.53;;;2.70;;
34828;SDS011;21042;47.620;12.188;2023-07-31T02:07:17;4.85;;;2.65;;
34828;SDS011;21042;47.620;12.188;2023-07-31T02:09:44;10.75;;;3.10;;
34828;SDS011;21042;47.620;12.188;2023-07-31T02:12:13;6.65;;;3.25;;
34828;SDS011;21042;47.620;12.188;2023-07-31T02:14:40;4.80;;;2.75;;
34828;SDS011;21042;47.620;12.188;2023-07-31T02:17:08;5.82;;;2.40;;
34828;SDS011;21042;47.620;12.188;2023-07-31T02:19:35;4.75;;;2.80;;
34828;SDS011;21042;47.620;12.188;2023-07-31T02:22:01;12.13;;;3.22;;
34828;SDS011;21042;47.620;12.188;2023-07-31T02:24:28;3.83;;;3.05;;
34828;SDS011;21042;47.620;12.188;2023-07-31T02:26:57;3.75;;;2.65;;
34828;SDS011;21042;47.620;12.188;2023-07-31T02:29:24;8.45;;;2.97;;
34828;SDS011;21042;47.620;12.188;2023-07-31T02:31:51;6.20;;;3.10;;
34828;SDS011;21042;47.620;12.188;2023-07-31T02:34:18;7.70;;;3.05;;
34828;SDS011;21042;47.620;12.188;2023-07-31T02:36:45;7.53;;;2.78;;
34828;SDS011;21042;47.620;12.188;2023-07-31T02:39:12;5.55;;;2.92;;
34828;SDS011;21042;47.620;12.188;2023-07-31T02:41:39;10.10;;;3.10;;
34828;SDS011;21042;47.620;12.188;2023-07-31T02:44:05;5.60;;;3.20;;
34828;SDS011;21042;47.620;12.188;2023-07-31T02:46:32;6.43;;;2.80;;
34828;SDS011;21042;47.620;12.188;2023-07-31T02:48:59;12.65;;;3.38;;
34828;SDS011;21042;47.620;12.188;2023-07-31T02:51:26;4.70;;;2.55;;
34828;SDS011;21042;47.620;12.188;2023-07-31T02:53:52;9.00;;;3.25;;
34828;SDS011;21042;47.620;12.188;2023-07-31T02:56:19;9.88;;;2.90;;
34828;SDS011;21042;47.620;12.188;2023-07-31T02:58:46;4.57;;;2.90;;
34828;SDS011;21042;47.620;12.188;2023-07-31T03:01:13;7.72;;;3.10;;
34828;SDS011;21042;47.620;12.188;2023-07-31T03:03:41;10.18;;;3.53;;
34828;SDS011;21042;47.620;12.188;2023-07-31T03:06:08;7.03;;;2.88;;
34828;SDS011;21042;47.620;12.188;2023-07-31T03:08:35;5.88;;;2.75;;
34828;SDS011;21042;47.620;12.188;2023-07-31T03:11:02;6.47;;;2.70;;
34828;SDS011;21042;47.620;12.188;2023-07-31T03:13:29;6.65;;;2.92;;
34828;SDS011;21042;47.620;12.188;2023-07-31T03:15:55;13.40;;;3.08;;
34828;SDS011;21042;47.620;12.188;2023-07-31T03:18:22;4.43;;;3.25;;
34828;SDS011;21042;47.620;12.188;2023-07-31T03:20:49;5.63;;;2.60;;
34828;SDS011;21042;47.620;12.188;2023-07-31T03:23:16;7.88;;;2.90;;
34828;SDS011;21042;47.620;12.188;2023-07-31T03:28:42;10.05;;;3.75;;
34828;SDS011;21042;47.620;12.188;2023-07-31T03:31:09;5.57;;;3.35;;
34828;SDS011;21042;47.620;12.188;2023-07-31T03:33:36;9.05;;;3.05;;
34828;SDS011;21042;47.620;12.188;2023-07-31T03:36:03;11.15;;;3.13;;
34828;SDS011;21042;47.620;12.188;2023-07-31T03:38:30;3.92;;;2.88;;
34828;SDS011;21042;47.620;12.188;2023-07-31T03:40:57;4.25;;;2.92;;
34828;SDS011;21042;47.620;12.188;2023-07-31T03:43:25;7.15;;;2.67;;
34828;SDS011;21042;47.620;12.188;2023-07-31T03:45:52;6.90;;;3.08;;
34828;SDS011;21042;47.620;12.188;2023-07-31T03:48:19;7.45;;;3.17;;
34828;SDS011;21042;47.620;12.188;2023-07-31T03:50:46;4.63;;;2.63;;
34828;SDS011;21042;47.620;12.188;2023-07-31T03:53:13;5.00;;;2.95;;
34828;SDS011;21042;47.620;12.188;2023-07-31T03:58:07;7.60;;;2.90;;
34828;SDS011;21042;47.620;12.188;2023-07-31T04:00:34;4.10;;;2.67;;
34828;SDS011;21042;47.620;12.188;2023-07-31T04:03:01;3.53;;;2.80;;
34828;SDS011;21042;47.620;12.188;2023-07-31T04:05:29;6.30;;;2.53;;
34828;SDS011;21042;47.620;12.188;2023-07-31T04:07:57;6.40;;;2.80;;
34828;SDS011;21042;47.620;12.188;2023-07-31T04:10:24;9.32;;;2.90;;
34828;SDS011;21042;47.620;12.188;2023-07-31T04:12:51;3.45;;;2.85;;
34828;SDS011;21042;47.620;12.188;2023-07-31T04:15:18;8.73;;;2.88;;
34828;SDS011;21042;47.620;12.188;2023-07-31T04:17:44;9.50;;;2.92;;
34828;SDS011;21042;47.620;12.188;2023-07-31T04:20:11;7.88;;;2.95;;
34828;SDS011;21042;47.620;12.188;2023-07-31T04:22:38;7.38;;;3.13;;
34828;SDS011;21042;47.620;12.188;2023-07-31T04:25:05;5.25;;;2.60;;
34828;SDS011;21042;47.620;12.188;2023-07-31T04:27:32;8.02;;;2.90;;
34828;SDS011;21042;47.620;12.188;2023-07-31T04:29:58;7.47;;;2.88;;
34828;SDS011;21042;47.620;12.188;2023-07-31T04:32:25;5.20;;;2.70;;
34828;SDS011;21042;47.620;12.188;2023-07-31T04:34:52;5.70;;;3.10;;
34828;SDS011;21042;47.620;12.188;2023-07-31T04:37:19;7.95;;;3.30;;
34828;SDS011;21042;47.620;12.188;2023-07-31T04:39:45;5.70;;;2.70;;
34828;SDS011;21042;47.620;12.188;2023-07-31T04:42:12;5.93;;;2.60;;
34828;SDS011;21042;47.620;12.188;2023-07-31T04:44:39;5.68;;;3.05;;
34828;SDS011;21042;47.620;12.188;2023-07-31T04:47:06;5.68;;;3.10;;
34828;SDS011;21042;47.620;12.188;2023-07-31T04:49:33;9.48;;;3.67;;
34828;SDS011;21042;47.620;12.188;2023-07-31T04:51:59;11.82;;;3.60;;
34828;SDS011;21042;47.620;12.188;2023-07-31T04:54:26;9.60;;;3.70;;
34828;SDS011;21042;47.620;12.188;2023-07-31T04:56:53;5.75;;;3.88;;
34828;SDS011;21042;47.620;12.188;2023-07-31T04:59:20;9.52;;;3.75;;
34828;SDS011;21042;47.620;12.188;2023-07-31T05:01:46;9.70;;;3.92;;
34828;SDS011;21042;47.620;12.188;2023-07-31T05:04:14;11.90;;;3.97;;
34828;SDS011;21042;47.620;12.188;2023-07-31T05:06:41;9.35;;;4.30;;
34828;SDS011;21042;47.620;12.188;2023-07-31T05:09:08;7.72;;;3.70;;
34828;SDS011;21042;47.620;12.188;2023-07-31T05:11:35;8.85;;;3.67;;
34828;SDS011;21042;47.620;12.188;2023-07-31T05:14:02;7.35;;;3.58;;
34828;SDS011;21042;47.620;12.188;2023-07-31T05:16:29;6.47;;;3.28;;
34828;SDS011;21042;47.620;12.188;2023-07-31T05:18:56;14.75;;;3.97;;
34828;SDS011;21042;47.620;12.188;2023-07-31T05:21:23;8.70;;;4.07;;
34828;SDS011;21042;47.620;12.188;2023-07-31T05:23:50;7.00;;;4.00;;
34828;SDS011;21042;47.620;12.188;2023-07-31T05:26:17;14.38;;;3.97;;
34828;SDS011;21042;47.620;12.188;2023-07-31T05:28:44;11.52;;;3.67;;
34828;SDS011;21042;47.620;12.188;2023-07-31T05:31:11;11.35;;;4.07;;
34828;SDS011;21042;47.620;12.188;2023-07-31T05:33:38;7.18;;;3.53;;
34828;SDS011;21042;47.620;12.188;2023-07-31T05:36:05;8.48;;;3.63;;
34828;SDS011;21042;47.620;12.188;2023-07-31T05:38:32;15.13;;;3.40;;
34828;SDS011;21042;47.620;12.188;2023-07-31T05:40:58;6.78;;;3.35;;
34828;SDS011;21042;47.620;12.188;2023-07-31T05:43:25;4.75;;;3.22;;
34828;SDS011;21042;47.620;12.188;2023-07-31T05:45:52;5.53;;;2.90;;
34828;SDS011;21042;47.620;12.188;2023-07-31T05:48:19;6.35;;;3.22;;
34828;SDS011;21042;47.620;12.188;2023-07-31T05:50:45;8.20;;;3.05;;
34828;SDS011;21042;47.620;12.188;2023-07-31T05:53:12;6.60;;;3.40;;
34828;SDS011;21042;47.620;12.188;2023-07-31T05:55:39;7.20;;;3.00;;
34828;SDS011;21042;47.620;12.188;2023-07-31T05:58:06;5.70;;;3.33;;
34828;SDS011;21042;47.620;12.188;2023-07-31T06:00:33;8.30;;;3.45;;
34828;SDS011;21042;47.620;12.188;2023-07-31T06:03:00;7.18;;;3.65;;
34828;SDS011;21042;47.620;12.188;2023-07-31T06:05:26;6.47;;;3.28;;
34828;SDS011;21042;47.620;12.188;2023-07-31T06:07:55;7.65;;;3.50;;
34828;SDS011;21042;47.620;12.188;2023-07-31T06:10:22;7.55;;;3.47;;
34828;SDS011;21042;47.620;12.188;2023-07-31T06:12:49;7.32;;;3.70;;
34828;SDS011;21042;47.620;12.188;2023-07-31T06:15:16;4.72;;;3.08;;
34828;SDS011;21042;47.620;12.188;2023-07-31T06:17:45;6.20;;;3.40;;
34828;SDS011;21042;47.620;12.188;2023-07-31T06:20:12;6.82;;;3.35;;
34828;SDS011;21042;47.620;12.188;2023-07-31T06:22:39;4.65;;;3.13;;
34828;SDS011;21042;47.620;12.188;2023-07-31T06:25:06;6.22;;;3.80;;
34828;SDS011;21042;47.620;12.188;2023-07-31T06:27:33;5.85;;;3.35;;
34828;SDS011;21042;47.620;12.188;2023-07-31T06:30:00;8.35;;;3.72;;
34828;SDS011;21042;47.620;12.188;2023-07-31T06:32:26;8.85;;;4.25;;
34828;SDS011;21042;47.620;12.188;2023-07-31T06:34:53;7.75;;;3.20;;
34828;SDS011;21042;47.620;12.188;2023-07-31T06:37:20;6.18;;;3.20;;
34828;SDS011;21042;47.620;12.188;2023-07-31T06:39:47;5.43;;;3.13;;
34828;SDS011;21042;47.620;12.188;2023-07-31T06:44:41;6.10;;;2.92;;
34828;SDS011;21042;47.620;12.188;2023-07-31T06:47:08;8.63;;;3.00;;
34828;SDS011;21042;47.620;12.188;2023-07-31T06:49:35;7.10;;;3.10;;
34828;SDS011;21042;47.620;12.188;2023-07-31T06:52:02;6.25;;;2.97;;
34828;SDS011;21042;47.620;12.188;2023-07-31T06:54:29;5.90;;;2.97;;
34828;SDS011;21042;47.620;12.188;2023-07-31T06:56:55;5.63;;;2.97;;
34828;SDS011;21042;47.620;12.188;2023-07-31T06:59:22;6.45;;;3.33;;
34828;SDS011;21042;47.620;12.188;2023-07-31T07:01:49;7.72;;;3.10;;
34828;SDS011;21042;47.620;12.188;2023-07-31T07:04:16;4.55;;;3.00;;
34828;SDS011;21042;47.620;12.188;2023-07-31T07:06:42;6.15;;;2.78;;
34828;SDS011;21042;47.620;12.188;2023-07-31T07:09:09;6.13;;;3.25;;
34828;SDS011;21042;47.620;12.188;2023-07-31T07:11:36;4.47;;;3.28;;
34828;SDS011;21042;47.620;12.188;2023-07-31T07:14:03;5.25;;;3.40;;
34828;SDS011;21042;47.620;12.188;2023-07-31T07:16:30;10.13;;;3.47;;
34828;SDS011;21042;47.620;12.188;2023-07-31T07:18:57;9.93;;;3.47;;
34828;SDS011;21042;47.620;12.188;2023-07-31T07:21:30;4.90;;;2.83;;
34828;SDS011;21042;47.620;12.188;2023-07-31T07:23:57;9.55;;;3.13;;
34828;SDS011;21042;47.620;12.188;2023-07-31T07:26:24;11.25;;;3.33;;
34828;SDS011;21042;47.620;12.188;2023-07-31T07:28:51;10.48;;;3.47;;
34828;SDS011;21042;47.620;12.188;2023-07-31T07:31:20;10.30;;;3.95;;
34828;SDS011;21042;47.620;12.188;2023-07-31T07:33:46;6.88;;;3.20;;
34828;SDS011;21042;47.620;12.188;2023-07-31T07:36:13;9.15;;;3.58;;
34828;SDS011;21042;47.620;12.188;2023-07-31T07:38:40;11.50;;;4.03;;
34828;SDS011;21042;47.620;12.188;2023-07-31T07:41:07;5.53;;;3.25;;
34828;SDS011;21042;47.620;12.188;2023-07-31T07:43:34;7.10;;;3.10;;
34828;SDS011;21042;47.620;12.188;2023-07-31T07:46:01;5.38;;;3.40;;
34828;SDS011;21042;47.620;12.188;2023-07-31T07:50:55;10.30;;;3.03;;
34828;SDS011;21042;47.620;12.188;2023-07-31T07:53:21;7.63;;;3.15;;
34828;SDS011;21042;47.620;12.188;2023-07-31T07:55:48;7.38;;;3.55;;
34828;SDS011;21042;47.620;12.188;2023-07-31T07:58:15;5.80;;;3.70;;
34828;SDS011;21042;47.620;12.188;2023-07-31T08:00:42;10.35;;;3.58;;
34828;SDS011;21042;47.620;12.188;2023-07-31T08:03:15;10.18;;;3.42;;
34828;SDS011;21042;47.620;12.188;2023-07-31T08:05:43;15.10;;;4.00;;
34828;SDS011;21042;47.620;12.188;2023-07-31T08:10:40;5.55;;;3.05;;
34828;SDS011;21042;47.620;12.188;2023-07-31T08:13:07;11.00;;;2.85;;
34828;SDS011;21042;47.620;12.188;2023-07-31T08:15:34;11.60;;;3.85;;
34828;SDS011;21042;47.620;12.188;2023-07-31T08:18:01;6.03;;;3.67;;
34828;SDS011;21042;47.620;12.188;2023-07-31T08:20:27;5.13;;;2.90;;
34828;SDS011;21042;47.620;12.188;2023-07-31T08:22:54;11.02;;;3.10;;
34828;SDS011;21042;47.620;12.188;2023-07-31T08:25:21;8.75;;;3.70;;
34828;SDS011;21042;47.620;12.188;2023-07-31T08:27:48;7.03;;;3.10;;
34828;SDS011;21042;47.620;12.188;2023-07-31T08:30:14;8.23;;;3.05;;
34828;SDS011;21042;47.620;12.188;2023-07-31T08:32:41;7.38;;;2.95;;
34828;SDS011;21042;47.620;12.188;2023-07-31T08:35:08;8.40;;;2.97;;
34828;SDS011;21042;47.620;12.188;2023-07-31T08:37:35;6.13;;;2.95;;
34828;SDS011;21042;47.620;12.188;2023-07-31T08:40:02;8.25;;;3.03;;
34828;SDS011;21042;47.620;12.188;2023-07-31T08:42:29;3.97;;;2.53;;
34828;SDS011;21042;47.620;12.188;2023-07-31T08:44:57;9.98;;;3.05;;
34828;SDS011;21042;47.620;12.188;2023-07-31T08:47:25;6.78;;;2.80;;
34828;SDS011;21042;47.620;12.188;2023-07-31T08:49:53;7.70;;;3.05;;
34828;SDS011;21042;47.620;12.188;2023-07-31T08:52:21;4.40;;;2.88;;
34828;SDS011;21042;47.620;12.188;2023-07-31T08:54:48;3.65;;;2.60;;
34828;SDS011;21042;47.620;12.188;2023-07-31T08:57:15;3.92;;;2.60;;
34828;SDS011;21042;47.620;12.188;2023-07-31T08:59:43;7.53;;;2.65;;
34828;SDS011;21042;47.620;12.188;2023-07-31T09:02:11;10.38;;;3.28;;
34828;SDS011;21042;47.620;12.188;2023-07-31T09:04:40;4.55;;;3.00;;
34828;SDS011;21042;47.620;12.188;2023-07-31T09:07:06;4.00;;;3.25;;
34828;SDS011;21042;47.620;12.188;2023-07-31T09:09:35;7.55;;;3.60;;
34828;SDS011;21042;47.620;12.188;2023-07-31T09:12:02;5.07;;;3.42;;
34828;SDS011;21042;47.620;12.188;2023-07-31T09:14:29;6.10;;;2.90;;
34828;SDS011;21042;47.620;12.188;2023-07-31T09:16:56;7.28;;;2.95;;
34828;SDS011;21042;47.620;12.188;2023-07-31T09:19:26;3.90;;;2.67;;
34828;SDS011;21042;47.620;12.188;2023-07-31T09:22:00;7.53;;;3.28;;
34828;SDS011;21042;47.620;12.188;2023-07-31T09:26:57;4.53;;;2.78;;
34828;SDS011;21042;47.620;12.188;2023-07-31T09:29:25;4.28;;;3.15;;
34828;SDS011;21042;47.620;12.188;2023-07-31T09:31:54;4.38;;;2.85;;
34828;SDS011;21042;47.620;12.188;2023-07-31T09:34:28;6.38;;;3.10;;
34828;SDS011;21042;47.620;12.188;2023-07-31T09:37:02;11.30;;;2.90;;
34828;SDS011;21042;47.620;12.188;2023-07-31T09:39:29;6.32;;;2.63;;
34828;SDS011;21042;47.620;12.188;2023-07-31T09:44:38;8.05;;;3.10;;
34828;SDS011;21042;47.620;12.188;2023-07-31T09:47:24;6.75;;;3.35;;
34828;SDS011;21042;47.620;12.188;2023-07-31T09:49:52;7.63;;;3.05;;
34828;SDS011;21042;47.620;12.188;2023-07-31T09:52:19;4.53;;;3.08;;
34828;SDS011;21042;47.620;12.188;2023-07-31T09:54:46;5.32;;;3.10;;
34828;SDS011;21042;47.620;12.188;2023-07-31T09:57:13;6.22;;;3.00;;
34828;SDS011;21042;47.620;12.188;2023-07-31T09:59:43;3.95;;;2.80;;
34828;SDS011;21042;47.620;12.188;2023-07-31T10:02:10;3.42;;;2.90;;
34828;SDS011;21042;47.620;12.188;2023-07-31T10:04:47;6.43;;;3.10;;
34828;SDS011;21042;47.620;12.188;2023-07-31T10:07:16;5.18;;;2.85;;
34828;SDS011;21042;47.620;12.188;2023-07-31T10:09:44;5.45;;;2.97;;
34828;SDS011;21042;47.620;12.188;2023-07-31T10:12:13;4.90;;;2.85;;
34828;SDS011;21042;47.620;12.188;2023-07-31T10:14:41;7.03;;;3.13;;
34828;SDS011;21042;47.620;12.188;2023-07-31T10:19:36;4.38;;;2.90;;
34828;SDS011;21042;47.620;12.188;2023-07-31T10:22:03;3.65;;;2.50;;
34828;SDS011;21042;47.620;12.188;2023-07-31T10:24:30;9.43;;;3.22;;
34828;SDS011;21042;47.620;12.188;2023-07-31T10:26:58;7.57;;;3.00;;
34828;SDS011;21042;47.620;12.188;2023-07-31T10:29:27;6.05;;;3.38;;
34828;SDS011;21042;47.620;12.188;2023-07-31T10:31:56;7.22;;;2.50;;
34828;SDS011;21042;47.620;12.188;2023-07-31T10:34:24;8.98;;;3.20;;
34828;SDS011;21042;47.620;12.188;2023-07-31T10:37:18;4.57;;;2.80;;
34828;SDS011;21042;47.620;12.188;2023-07-31T10:42:27;4.65;;;2.50;;
34828;SDS011;21042;47.620;12.188;2023-07-31T10:44:59;4.93;;;3.05;;
34828;SDS011;21042;47.620;12.188;2023-07-31T10:47:31;5.50;;;2.72;;
34828;SDS011;21042;47.620;12.188;2023-07-31T10:50:12;6.47;;;3.00;;
34828;SDS011;21042;47.620;12.188;2023-07-31T10:52:49;5.45;;;3.20;;
34828;SDS011;21042;47.620;12.188;2023-07-31T10:57:52;5.38;;;2.50;;
34828;SDS011;21042;47.620;12.188;2023-07-31T11:11:06;3.45;;;2.50;;
34828;SDS011;21042;47.620;12.188;2023-07-31T11:13:41;4.72;;;2.60;;
34828;SDS011;21042;47.620;12.188;2023-07-31T11:16:12;5.65;;;2.95;;
34828;SDS011;21042;47.620;12.188;2023-07-31T11:18:40;4.85;;;2.95;;
34828;SDS011;21042;47.620;12.188;2023-07-31T11:21:12;4.32;;;2.40;;
34828;SDS011;21042;47.620;12.188;2023-07-31T11:23:39;4.82;;;2.38;;
34828;SDS011;21042;47.620;12.188;2023-07-31T11:26:06;4.18;;;2.60;;
34828;SDS011;21042;47.620;12.188;2023-07-31T11:28:34;3.97;;;2.40;;
34828;SDS011;21042;47.620;12.188;2023-07-31T11:31:01;6.18;;;2.50;;
34828;SDS011;21042;47.620;12.188;2023-07-31T11:33:29;3.25;;;2.47;;
34828;SDS011;21042;47.620;12.188;2023-07-31T11:38:27;4.60;;;2.80;;
34828;SDS011;21042;47.620;12.188;2023-07-31T11:41:00;5.80;;;2.78;;
34828;SDS011;21042;47.620;12.188;2023-07-31T11:43:31;3.20;;;2.40;;
34828;SDS011;21042;47.620;12.188;2023-07-31T11:45:59;3.47;;;2.20;;
34828;SDS011;21042;47.620;12.188;2023-07-31T11:48:31;8.77;;;2.55;;
34828;SDS011;21042;47.620;12.188;2023-07-31T11:51:06;6.40;;;2.65;;
34828;SDS011;21042;47.620;12.188;2023-07-31T11:53:44;5.55;;;2.28;;
34828;SDS011;21042;47.620;12.188;2023-07-31T11:56:16;3.45;;;2.60;;
34828;SDS011;21042;47.620;12.188;2023-07-31T11:58:45;3.28;;;2.33;;
34828;SDS011;21042;47.620;12.188;2023-07-31T12:01:14;4.65;;;2.20;;
34828;SDS011;21042;47.620;12.188;2023-07-31T12:03:44;4.53;;;2.00;;
34828;SDS011;21042;47.620;12.188;2023-07-31T12:06:12;9.45;;;2.60;;
34828;SDS011;21042;47.620;12.188;2023-07-31T12:08:39;4.97;;;2.58;;
34828;SDS011;21042;47.620;12.188;2023-07-31T12:11:07;3.95;;;2.65;;
34828;SDS011;21042;47.620;12.188;2023-07-31T12:13:37;4.13;;;2.38;;
34828;SDS011;21042;47.620;12.188;2023-07-31T12:16:04;5.00;;;2.20;;
34828;SDS011;21042;47.620;12.188;2023-07-31T12:18:35;2.83;;;2.40;;
34828;SDS011;21042;47.620;12.188;2023-07-31T12:21:05;4.85;;;2.40;;
34828;SDS011;21042;47.620;12.188;2023-07-31T12:23:33;9.30;;;2.53;;
34828;SDS011;21042;47.620;12.188;2023-07-31T12:28:45;5.13;;;2.70;;
34828;SDS011;21042;47.620;12.188;2023-07-31T12:31:15;4.57;;;2.70;;
34828;SDS011;21042;47.620;12.188;2023-07-31T12:33:47;2.92;;;2.30;;
34828;SDS011;21042;47.620;12.188;2023-07-31T12:36:16;2.58;;;2.15;;
34828;SDS011;21042;47.620;12.188;2023-07-31T12:38:49;2.47;;;2.03;;
34828;SDS011;21042;47.620;12.188;2023-07-31T12:41:16;6.13;;;2.75;;
34828;SDS011;21042;47.620;12.188;2023-07-31T12:43:44;6.28;;;2.35;;
34828;SDS011;21042;47.620;12.188;2023-07-31T12:46:11;6.20;;;2.33;;
34828;SDS011;21042;47.620;12.188;2023-07-31T12:48:39;4.53;;;2.67;;
34828;SDS011;21042;47.620;12.188;2023-07-31T12:51:06;4.18;;;2.53;;
34828;SDS011;21042;47.620;12.188;2023-07-31T12:53:34;4.32;;;2.65;;
34828;SDS011;21042;47.620;12.188;2023-07-31T12:56:01;4.05;;;2.53;;
34828;SDS011;21042;47.620;12.188;2023-07-31T13:00:55;3.60;;;2.50;;
34828;SDS011;21042;47.620;12.188;2023-07-31T13:05:49;3.53;;;2.50;;
34828;SDS011;21042;47.620;12.188;2023-07-31T13:08:16;8.48;;;2.60;;
34828;SDS011;21042;47.620;12.188;2023-07-31T13:10:44;6.18;;;2.65;;
34828;SDS011;21042;47.620;12.188;2023-07-31T13:13:11;7.40;;;2.60;;
34828;SDS011;21042;47.620;12.188;2023-07-31T13:15:37;3.25;;;2.15;;
34828;SDS011;21042;47.620;12.188;2023-07-31T13:18:06;4.53;;;2.00;;
34828;SDS011;21042;47.620;12.188;2023-07-31T13:20:33;6.95;;;2.40;;
34828;SDS011;21042;47.620;12.188;2023-07-31T13:23:00;4.30;;;2.60;;
34828;SDS011;21042;47.620;12.188;2023-07-31T13:25:27;4.05;;;2.50;;
34828;SDS011;21042;47.620;12.188;2023-07-31T13:27:54;4.03;;;2.42;;
34828;SDS011;21042;47.620;12.188;2023-07-31T13:30:22;6.85;;;2.40;;
34828;SDS011;21042;47.620;12.188;2023-07-31T13:32:48;6.75;;;2.85;;
34828;SDS011;21042;47.620;12.188;2023-07-31T13:35:15;5.47;;;2.53;;
34828;SDS011;21042;47.620;12.188;2023-07-31T13:37:42;5.20;;;2.50;;
34828;SDS011;21042;47.620;12.188;2023-07-31T13:40:09;3.65;;;2.33;;
34828;SDS011;21042;47.620;12.188;2023-07-31T13:42:36;9.05;;;2.75;;
34828;SDS011;21042;47.620;12.188;2023-07-31T13:45:03;3.42;;;2.35;;
34828;SDS011;21042;47.620;12.188;2023-07-31T13:47:33;4.53;;;2.70;;
34828;SDS011;21042;47.620;12.188;2023-07-31T13:50:00;5.90;;;2.85;;
34828;SDS011;21042;47.620;12.188;2023-07-31T13:52:27;3.90;;;2.53;;
34828;SDS011;21042;47.620;12.188;2023-07-31T13:54:54;4.85;;;2.70;;
34828;SDS011;21042;47.620;12.188;2023-07-31T13:57:21;6.40;;;2.75;;
34828;SDS011;21042;47.620;12.188;2023-07-31T13:59:49;7.95;;;2.40;;
34828;SDS011;21042;47.620;12.188;2023-07-31T14:02:16;5.88;;;2.60;;
34828;SDS011;21042;47.620;12.188;2023-07-31T14:04:43;8.77;;;2.85;;
34828;SDS011;21042;47.620;12.188;2023-07-31T14:07:09;8.55;;;2.58;;
34828;SDS011;21042;47.620;12.188;2023-07-31T14:09:36;4.90;;;2.45;;
34828;SDS011;21042;47.620;12.188;2023-07-31T14:12:03;7.43;;;2.70;;
34828;SDS011;21042;47.620;12.188;2023-07-31T14:14:30;4.80;;;2.78;;
34828;SDS011;21042;47.620;12.188;2023-07-31T14:17:00;3.00;;;2.58;;
34828;SDS011;21042;47.620;12.188;2023-07-31T14:19:27;5.78;;;2.67;;
34828;SDS011;21042;47.620;12.188;2023-07-31T14:24:36;5.18;;;2.70;;
34828;SDS011;21042;47.620;12.188;2023-07-31T14:27:03;8.02;;;2.85;;
34828;SDS011;21042;47.620;12.188;2023-07-31T14:29:30;11.20;;;2.90;;
34828;SDS011;21042;47.620;12.188;2023-07-31T14:31:57;4.13;;;2.92;;
34828;SDS011;21042;47.620;12.188;2023-07-31T14:34:26;3.40;;;2.35;;
34828;SDS011;21042;47.620;12.188;2023-07-31T14:36:52;6.15;;;3.10;;
34828;SDS011;21042;47.620;12.188;2023-07-31T14:39:19;4.18;;;2.72;;
34828;SDS011;21042;47.620;12.188;2023-07-31T14:41:46;10.02;;;2.90;;
34828;SDS011;21042;47.620;12.188;2023-07-31T14:44:14;6.43;;;2.60;;
34828;SDS011;21042;47.620;12.188;2023-07-31T14:49:08;2.83;;;2.13;;
34828;SDS011;21042;47.620;12.188;2023-07-31T14:51:35;5.80;;;2.85;;
34828;SDS011;21042;47.620;12.188;2023-07-31T14:54:01;6.20;;;2.40;;
34828;SDS011;21042;47.620;12.188;2023-07-31T14:56:28;7.65;;;2.65;;
34828;SDS011;21042;47.620;12.188;2023-07-31T14:58:55;6.18;;;2.45;;
34828;SDS011;21042;47.620;12.188;2023-07-31T15:01:22;4.07;;;2.50;;
34828;SDS011;21042;47.620;12.188;2023-07-31T15:03:49;4.32;;;2.65;;
34828;SDS011;21042;47.620;12.188;2023-07-31T15:06:16;8.20;;;4.07;;
34828;SDS011;21042;47.620;12.188;2023-07-31T15:08:43;3.88;;;2.72;;
34828;SDS011;21042;47.620;12.188;2023-07-31T15:11:09;5.63;;;2.75;;
34828;SDS011;21042;47.620;12.188;2023-07-31T15:16:03;6.00;;;2.47;;
34828;SDS011;21042;47.620;12.188;2023-07-31T15:18:30;3.70;;;2.92;;
34828;SDS011;21042;47.620;12.188;2023-07-31T15:20:57;8.30;;;2.50;;
34828;SDS011;21042;47.620;12.188;2023-07-31T15:23:24;6.85;;;2.63;;
34828;SDS011;21042;47.620;12.188;2023-07-31T15:25:52;4.18;;;2.17;;
34828;SDS011;21042;47.620;12.188;2023-07-31T15:28:19;4.35;;;2.63;;
34828;SDS011;21042;47.620;12.188;2023-07-31T15:30:46;8.95;;;2.38;;
34828;SDS011;21042;47.620;12.188;2023-07-31T15:33:14;6.05;;;2.90;;
34828;SDS011;21042;47.620;12.188;2023-07-31T15:35:41;6.97;;;2.50;;
34828;SDS011;21042;47.620;12.188;2023-07-31T15:38:09;3.85;;;2.58;;
34828;SDS011;21042;47.620;12.188;2023-07-31T15:40:36;5.85;;;2.67;;
34828;SDS011;21042;47.620;12.188;2023-07-31T15:43:04;3.88;;;2.72;;